Time;durP1;ratioP1;P1;durP2;ratioP2;P2;SDS_P1;SDS_P2;PMS_P1;PMS_P2;Temp;Humidity;BMP_temperature;BMP_pressure;BME280_temperature;BME280_humidity;BME280_pressure;Samples;Min_cycle;Max_cycle;Signal;HPM_P1;HPM_P2
2023/07/28 00:01:32;;;;;;;9.20;5.40;;;19.80;99.90;;;;;;4866824;29;20038;-53
2023/07/28 00:03:59;;;;;;;9.75;4.97;;;19.80;99.90;;;;;;4866719;29;20137;-53
2023/07/28 00:06:26;;;;;;;8.25;5.20;;;19.80;99.90;;;;;;4866897;29;20477;-53
2023/07/28 00:08:52;;;;;;;9.95;4.97;;;19.80;99.90;;;;;;4866832;29;20053;-54
2023/07/28 00:11:19;;;;;;;10.20;5.43;;;19.80;99.90;;;;;;4866804;29;20470;-53
2023/07/28 00:13:46;;;;;;;9.63;4.75;;;19.70;99.90;;;;;;4866626;29;20069;-53
2023/07/28 00:16:14;;;;;;;8.00;4.80;;;19.70;99.90;;;;;;4866617;29;20485;-57
2023/07/28 00:18:41;;;;;;;10.18;5.20;;;19.70;99.90;;;;;;4866707;29;20054;-55
2023/07/28 00:21:08;;;;;;;7.25;4.63;;;19.70;99.90;;;;;;4866115;29;20453;-53
2023/07/28 00:23:35;;;;;;;7.35;4.43;;;19.60;99.90;;;;;;4866691;29;20549;-54
2023/07/28 00:26:01;;;;;;;8.25;4.53;;;19.50;99.90;;;;;;4866646;29;20047;-53
2023/07/28 00:28:28;;;;;;;8.88;4.57;;;19.50;99.90;;;;;;4866788;29;20049;-49
2023/07/28 00:30:55;;;;;;;10.15;4.60;;;19.50;99.90;;;;;;4866840;29;20393;-48
2023/07/28 00:33:23;;;;;;;10.32;4.40;;;19.40;99.90;;;;;;4866915;29;20037;-53
2023/07/28 00:35:50;;;;;;;10.57;4.63;;;19.40;99.90;;;;;;4866689;29;20128;-50
2023/07/28 00:38:16;;;;;;;8.50;4.63;;;19.40;99.90;;;;;;4866507;29;20046;-52
2023/07/28 00:40:43;;;;;;;7.40;4.47;;;19.40;99.90;;;;;;4865503;29;20056;-54
2023/07/28 00:43:11;;;;;;;7.72;4.60;;;19.40;99.90;;;;;;4866391;29;20065;-52
2023/07/28 00:45:38;;;;;;;9.25;4.10;;;19.40;99.90;;;;;;4866628;29;20109;-53
2023/07/28 00:48:05;;;;;;;9.23;4.32;;;19.40;99.90;;;;;;4866652;29;20482;-51
2023/07/28 00:50:32;;;;;;;7.13;4.18;;;19.40;99.90;;;;;;4866553;29;20105;-54
2023/07/28 00:52:59;;;;;;;7.63;4.05;;;19.50;99.90;;;;;;4865548;29;20053;-50
2023/07/28 00:55:26;;;;;;;6.97;4.22;;;19.50;99.90;;;;;;4866494;29;20037;-53
2023/07/28 00:57:53;;;;;;;7.82;4.40;;;19.50;99.90;;;;;;4865044;29;20057;-50
2023/07/28 01:00:19;;;;;;;8.27;4.13;;;19.50;99.90;;;;;;4865081;29;20109;-54
2023/07/28 01:02:46;;;;;;;9.52;4.22;;;19.50;99.90;;;;;;4863494;29;20054;-54
2023/07/28 01:05:13;;;;;;;7.78;4.00;;;19.50;99.90;;;;;;4863531;29;20053;-55
2023/07/28 01:07:41;;;;;;;7.90;3.50;;;19.40;99.90;;;;;;4863238;29;20470;-49
2023/07/28 01:10:08;;;;;;;6.40;3.75;;;19.40;99.90;;;;;;4863515;29;20102;-54
2023/07/28 01:12:34;;;;;;;7.75;3.70;;;19.40;99.90;;;;;;4863350;29;20612;-55
2023/07/28 01:15:01;;;;;;;6.13;3.65;;;19.40;99.90;;;;;;4862112;29;20061;-54
2023/07/28 01:17:28;;;;;;;10.23;3.85;;;19.40;99.90;;;;;;4863314;29;20101;-53
2023/07/28 01:19:55;;;;;;;8.38;3.70;;;19.50;99.90;;;;;;4861912;29;20065;-53
2023/07/28 01:22:22;;;;;;;6.20;3.72;;;19.50;99.90;;;;;;4862717;29;20037;-49
2023/07/28 01:24:48;;;;;;;7.38;3.67;;;19.50;99.90;;;;;;4862990;29;20041;-53
2023/07/28 01:27:15;;;;;;;7.13;3.83;;;19.50;99.90;;;;;;4862888;29;20049;-49
2023/07/28 01:29:42;;;;;;;7.72;4.00;;;19.50;99.90;;;;;;4863180;29;20052;-50
2023/07/28 01:32:09;;;;;;;8.68;4.13;;;19.50;99.90;;;;;;4846711;29;20046;-53
2023/07/28 01:34:35;;;;;;;6.97;4.00;;;19.50;99.90;;;;;;4861640;29;20049;-50
2023/07/28 01:37:02;;;;;;;8.43;3.60;;;19.50;99.90;;;;;;4863232;29;20034;-52
2023/07/28 01:39:29;;;;;;;6.55;3.20;;;19.50;99.90;;;;;;4846545;29;20124;-53
2023/07/28 01:41:56;;;;;;;6.47;3.70;;;19.50;99.90;;;;;;4862718;29;20042;-53
2023/07/28 01:44:23;;;;;;;6.53;3.00;;;19.40;99.90;;;;;;4862654;29;20057;-53
2023/07/28 01:46:50;;;;;;;5.57;3.00;;;19.40;99.90;;;;;;4862950;29;20416;-50
2023/07/28 01:49:16;;;;;;;6.25;3.17;;;19.30;99.90;;;;;;4862584;29;20058;-52
2023/07/28 01:51:43;;;;;;;6.57;3.03;;;19.40;99.90;;;;;;4862612;29;20049;-48
2023/07/28 01:54:10;;;;;;;6.30;2.88;;;19.30;99.90;;;;;;4862803;29;20041;-52
2023/07/28 01:56:37;;;;;;;4.57;2.75;;;19.30;99.90;;;;;;4862512;29;20152;-52
2023/07/28 01:59:04;;;;;;;7.80;2.75;;;19.30;99.90;;;;;;4861169;29;20566;-48
2023/07/28 02:01:32;;;;;;;6.20;2.95;;;19.30;99.90;;;;;;4861221;29;20053;-55
2023/07/28 02:03:59;;;;;;;7.97;2.97;;;19.20;99.90;;;;;;4862454;29;20509;-55
2023/07/28 02:06:27;;;;;;;5.80;2.50;;;19.20;99.90;;;;;;4862238;29;20054;-52
2023/07/28 02:08:54;;;;;;;8.75;2.83;;;19.20;99.90;;;;;;4860825;29;20049;-50
2023/07/28 02:11:21;;;;;;;7.50;2.70;;;19.20;99.90;;;;;;4862403;29;20080;-50
2023/07/28 02:13:48;;;;;;;8.00;2.72;;;19.20;99.90;;;;;;4860825;29;20096;-53
2023/07/28 02:16:16;;;;;;;6.15;2.78;;;19.20;99.90;;;;;;4861289;29;20101;-52
2023/07/28 02:18:43;;;;;;;3.90;2.25;;;19.20;99.90;;;;;;4862048;29;20132;-52
2023/07/28 02:21:10;;;;;;;4.85;2.38;;;19.20;99.90;;;;;;4861924;29;20136;-50
2023/07/28 02:23:36;;;;;;;5.95;2.67;;;19.20;99.90;;;;;;4860946;29;20469;-51
2023/07/28 02:26:03;;;;;;;5.03;2.03;;;19.20;99.90;;;;;;4862078;29;20046;-53
2023/07/28 02:28:30;;;;;;;3.58;2.00;;;19.20;99.90;;;;;;4862048;29;20056;-52
2023/07/28 02:30:57;;;;;;;5.05;2.35;;;19.20;99.90;;;;;;4862165;29;20049;-50
2023/07/28 02:33:24;;;;;;;6.47;2.67;;;19.20;99.90;;;;;;4862064;29;20045;-51
2023/07/28 02:35:51;;;;;;;4.35;2.22;;;19.20;99.90;;;;;;4862015;29;20053;-50
2023/07/28 02:38:18;;;;;;;6.22;2.20;;;19.10;99.90;;;;;;4862120;29;20085;-51
2023/07/28 02:40:45;;;;;;;3.63;2.05;;;19.10;99.90;;;;;;4861675;29;20065;-52
2023/07/28 02:43:11;;;;;;;4.03;1.67;;;19.10;99.90;;;;;;4861920;29;20041;-49
2023/07/28 02:45:38;;;;;;;3.58;1.42;;;19.00;99.90;;;;;;4860483;29;20170;-53
2023/07/28 02:48:05;;;;;;;3.55;1.27;;;19.00;99.90;;;;;;4860469;29;20145;-49
2023/07/28 02:50:32;;;;;;;2.72;1.27;;;19.00;99.90;;;;;;4845127;29;20053;-49
2023/07/28 02:52:59;;;;;;;2.75;1.05;;;18.90;99.90;;;;;;4860306;29;20144;-52
2023/07/28 02:55:25;;;;;;;2.00;1.13;;;18.90;99.90;;;;;;4844784;29;20489;-50
2023/07/28 02:57:52;;;;;;;1.50;0.80;;;18.90;99.90;;;;;;4844722;29;20048;-51
2023/07/28 03:00:19;;;;;;;2.03;0.90;;;18.90;99.90;;;;;;4861718;29;20124;-51
2023/07/28 03:02:46;;;;;;;1.92;0.80;;;18.80;99.90;;;;;;4844754;29;20045;-56
2023/07/28 03:05:13;;;;;;;2.63;1.00;;;18.80;99.90;;;;;;4861207;29;20046;-52
2023/07/28 03:07:43;;;;;;;2.38;0.70;;;18.70;99.90;;;;;;4861512;29;20555;-48
2023/07/28 03:10:12;;;;;;;1.83;0.88;;;18.70;99.90;;;;;;4861304;29;20050;-54
2023/07/28 03:12:39;;;;;;;4.22;0.82;;;18.60;99.90;;;;;;4859976;29;20118;-54
2023/07/28 03:15:06;;;;;;;1.58;0.80;;;18.70;99.90;;;;;;4861139;29;20454;-48
2023/07/28 03:17:32;;;;;;;1.65;0.63;;;18.70;99.90;;;;;;4844481;29;20049;-55
2023/07/28 03:19:59;;;;;;;4.00;0.88;;;18.70;99.90;;;;;;4860979;29;20149;-56
2023/07/28 03:22:26;;;;;;;1.92;0.88;;;18.70;99.90;;;;;;4844136;29;20057;-52
2023/07/28 03:24:53;;;;;;;2.65;0.80;;;18.80;99.90;;;;;;4861118;29;20056;-55
2023/07/28 03:27:20;;;;;;;2.03;0.80;;;18.70;99.90;;;;;;4843858;29;20132;-53
2023/07/28 03:29:47;;;;;;;2.10;0.82;;;18.80;99.90;;;;;;4859471;29;20454;-53
2023/07/28 03:32:17;;;;;;;1.85;0.80;;;18.70;99.90;;;;;;4859370;29;20049;-51
2023/07/28 03:34:44;;;;;;;2.58;0.90;;;18.70;99.90;;;;;;4859522;29;20148;-51
2023/07/28 03:37:13;;;;;;;1.85;1.08;;;18.60;99.90;;;;;;4859633;29;20133;-53
2023/07/28 03:39:40;;;;;;;1.55;0.85;;;18.60;99.90;;;;;;4859472;29;20048;-48
2023/07/28 03:42:07;;;;;;;1.58;0.93;;;18.60;99.90;;;;;;4859496;29;20049;-47
2023/07/28 03:44:34;;;;;;;2.70;0.80;;;18.60;99.90;;;;;;4859612;29;20049;-49
2023/07/28 03:47:00;;;;;;;2.83;0.98;;;18.60;99.90;;;;;;4860846;29;20564;-49
2023/07/28 03:49:27;;;;;;;3.50;0.90;;;18.60;99.90;;;;;;4860593;29;20068;-49
2023/07/28 03:51:55;;;;;;;1.60;1.00;;;18.50;99.90;;;;;;4859746;29;20132;-52
2023/07/28 03:54:21;;;;;;;1.77;1.10;;;18.60;99.90;;;;;;4860673;29;20048;-47
2023/07/28 03:56:49;;;;;;;2.30;1.00;;;18.50;99.90;;;;;;4859340;29;20139;-50
2023/07/28 03:59:16;;;;;;;2.03;0.90;;;18.50;99.90;;;;;;4860363;29;20045;-49
2023/07/28 04:01:42;;;;;;;3.45;0.85;;;18.60;99.90;;;;;;4859660;29;20053;-47
2023/07/28 04:04:09;;;;;;;5.55;1.00;;;18.60;99.90;;;;;;4859194;29;20053;-53
2023/07/28 04:06:36;;;;;;;2.60;0.95;;;18.60;99.90;;;;;;4860876;29;20394;-54
2023/07/28 04:09:03;;;;;;;1.55;0.80;;;18.60;99.90;;;;;;4859142;29;20145;-49
2023/07/28 04:11:29;;;;;;;1.65;1.00;;;18.60;99.90;;;;;;4859302;29;20054;-52
2023/07/28 04:13:57;;;;;;;1.95;0.90;;;18.50;99.90;;;;;;4860318;29;20049;-49
2023/07/28 04:16:23;;;;;;;2.80;1.00;;;18.50;99.90;;;;;;4858953;29;20049;-48
2023/07/28 04:18:50;;;;;;;2.28;1.02;;;18.40;99.90;;;;;;4843844;29;20080;-53
2023/07/28 04:21:17;;;;;;;2.30;1.00;;;18.40;99.90;;;;;;4859647;29;20185;-47
2023/07/28 04:23:44;;;;;;;1.90;0.88;;;18.40;99.90;;;;;;4859118;29;20080;-50
2023/07/28 04:26:11;;;;;;;3.58;1.13;;;18.40;99.90;;;;;;4859015;29;20052;-49
2023/07/28 04:28:39;;;;;;;2.33;0.98;;;18.40;99.90;;;;;;4858960;29;20053;-49
2023/07/28 04:31:06;;;;;;;1.70;0.80;;;18.50;99.90;;;;;;4859238;29;20114;-54
2023/07/28 04:33:51;;;;;;;8.45;1.20;;;18.50;99.90;;;;;;4859040;29;20042;-55
2023/07/28 04:36:18;;;;;;;2.30;0.93;;;18.50;99.90;;;;;;4859343;29;20093;-54
2023/07/28 04:38:44;;;;;;;2.47;1.00;;;18.60;99.90;;;;;;4861761;29;20101;-52
2023/07/28 04:41:11;;;;;;;2.03;0.85;;;18.60;99.90;;;;;;4863887;29;20056;-54
2023/07/28 04:43:51;;;;;;;2.30;0.90;;;18.60;99.90;;;;;;4862607;29;20494;-51
2023/07/28 04:46:19;;;;;;;2.00;1.00;;;18.60;99.90;;;;;;4862598;29;20061;-52
2023/07/28 04:48:51;;;;;;;2.55;1.02;;;18.60;99.90;;;;;;4862367;29;20137;-53
2023/07/28 04:51:36;;;;;;;1.60;0.70;;;18.60;99.90;;;;;;4863853;29;20101;-53
2023/07/28 04:54:21;;;;;;;1.85;1.13;;;18.60;99.90;;;;;;4847046;29;20105;-52
2023/07/28 04:56:49;;;;;;;1.75;0.90;;;18.60;99.90;;;;;;4862508;29;20223;-55
2023/07/28 04:59:16;;;;;;;1.80;0.70;;;18.60;99.90;;;;;;4846758;29;20042;-56
2023/07/28 05:01:43;;;;;;;2.10;0.70;;;18.60;99.90;;;;;;4846949;29;20141;-53
2023/07/28 05:04:10;;;;;;;2.35;0.90;;;18.60;99.90;;;;;;4862116;29;20050;-52
2023/07/28 05:06:37;;;;;;;1.92;0.80;;;18.60;99.90;;;;;;4862243;29;20049;-53
2023/07/28 05:09:03;;;;;;;2.55;0.70;;;18.60;99.90;;;;;;4846715;29;20050;-54
2023/07/28 05:11:34;;;;;;;1.35;0.60;;;18.60;99.90;;;;;;4862129;29;20053;-54
2023/07/28 05:14:02;;;;;;;2.75;0.60;;;18.60;99.90;;;;;;4862030;29;20480;-54
2023/07/28 05:16:29;;;;;;;1.65;0.65;;;18.60;99.90;;;;;;4862202;29;20057;-53
2023/07/28 05:19:02;;;;;;;2.35;0.70;;;18.50;99.90;;;;;;4863092;29;20049;-55
2023/07/28 05:21:48;;;;;;;1.50;0.70;;;18.50;99.90;;;;;;4861676;29;20532;-51
2023/07/28 05:24:17;;;;;;;1.63;0.70;;;18.50;99.90;;;;;;4846411;29;20390;-53
2023/07/28 05:26:44;;;;;;;1.77;0.75;;;18.50;99.90;;;;;;4861848;29;20060;-51
2023/07/28 05:29:12;;;;;;;2.05;0.82;;;18.50;99.90;;;;;;4861819;29;20053;-54
2023/07/28 05:31:39;;;;;;;2.25;0.70;;;18.60;99.90;;;;;;4846601;29;20112;-51
2023/07/28 05:34:15;;;;;;;2.08;0.80;;;18.60;99.90;;;;;;4846509;29;20125;-50
2023/07/28 05:36:42;;;;;;;1.60;0.80;;;18.60;99.90;;;;;;4846223;29;20527;-48
2023/07/28 05:39:09;;;;;;;3.65;0.95;;;18.60;99.90;;;;;;4861498;29;20054;-51
2023/07/28 05:41:43;;;;;;;1.63;0.80;;;18.60;99.90;;;;;;4846361;29;20053;-57
2023/07/28 05:44:11;;;;;;;1.90;0.80;;;18.50;99.90;;;;;;4846319;29;20208;-53
2023/07/28 05:46:38;;;;;;;2.42;0.70;;;18.50;99.90;;;;;;4846135;29;20101;-52
2023/07/28 05:49:05;;;;;;;2.80;0.85;;;18.40;99.90;;;;;;4862397;29;20053;-50
2023/07/28 05:51:32;;;;;;;3.47;1.00;;;18.40;99.90;;;;;;4861567;29;20176;-53
2023/07/28 05:53:59;;;;;;;3.78;0.85;;;18.40;99.90;;;;;;4861494;29;20065;-52
2023/07/28 05:56:26;;;;;;;2.85;1.00;;;18.40;99.90;;;;;;4861443;29;20110;-50
2023/07/28 05:58:53;;;;;;;2.55;0.80;;;18.50;99.90;;;;;;4862655;29;20080;-53
2023/07/28 06:01:20;;;;;;;3.72;1.02;;;18.50;99.90;;;;;;4861293;29;20053;-51
2023/07/28 06:04:05;;;;;;;3.83;1.00;;;18.60;99.90;;;;;;4861596;29;20072;-54
2023/07/28 06:06:39;;;;;;;1.45;0.75;;;18.70;99.90;;;;;;4861391;29;20128;-47
2023/07/28 06:09:06;;;;;;;2.67;0.60;;;18.80;99.90;;;;;;4862593;29;20141;-48
2023/07/28 06:11:34;;;;;;;1.60;0.60;;;18.90;99.90;;;;;;4861059;29;20055;-49
2023/07/28 06:14:03;;;;;;;2.58;0.80;;;18.90;99.90;;;;;;4861214;29;20129;-57
2023/07/28 06:16:33;;;;;;;1.52;0.77;;;19.00;99.90;;;;;;4861230;29;20069;-55
2023/07/28 06:19:00;;;;;;;2.15;0.70;;;19.10;99.90;;;;;;4854730;29;20054;-51
2023/07/28 06:21:27;;;;;;;3.00;0.82;;;19.10;99.90;;;;;;4860470;29;20204;-53
2023/07/28 06:23:54;;;;;;;2.20;0.80;;;19.00;99.90;;;;;;4845532;29;20102;-54
2023/07/28 06:26:21;;;;;;;2.80;0.60;;;18.90;99.90;;;;;;4860755;29;20053;-48
2023/07/28 06:28:48;;;;;;;0.80;0.43;;;18.80;99.90;;;;;;4860820;29;20049;-53
2023/07/28 06:31:15;;;;;;;1.60;0.60;;;18.80;99.90;;;;;;4860805;29;20065;-55
2023/07/28 06:33:42;;;;;;;1.23;0.60;;;18.80;99.90;;;;;;4845447;29;20585;-52
2023/07/28 06:36:09;;;;;;;2.10;0.60;;;18.70;99.90;;;;;;4862001;29;20045;-53
2023/07/28 06:38:35;;;;;;;1.58;0.40;;;18.80;99.90;;;;;;4861756;29;20113;-52
2023/07/28 06:41:02;;;;;;;1.08;0.47;;;18.80;99.90;;;;;;4860865;29;20045;-57
2023/07/28 06:43:29;;;;;;;2.00;0.60;;;18.90;99.90;;;;;;4860221;29;20041;-51
2023/07/28 06:46:00;;;;;;;0.98;0.43;;;18.90;99.90;;;;;;4860885;29;20061;-53
2023/07/28 06:48:27;;;;;;;2.70;0.50;;;18.90;99.90;;;;;;4844987;29;20118;-54
2023/07/28 06:50:54;;;;;;;1.17;0.50;;;18.90;99.90;;;;;;4860394;29;20045;-50
2023/07/28 06:53:21;;;;;;;2.50;0.40;;;18.90;99.90;;;;;;4860326;29;20053;-53
2023/07/28 06:55:47;;;;;;;1.13;0.50;;;19.00;99.90;;;;;;4859921;29;20098;-51
2023/07/28 06:58:14;;;;;;;1.45;0.40;;;19.10;99.90;;;;;;4861523;29;20048;-54
2023/07/28 07:00:41;;;;;;;0.47;0.25;;;19.20;99.90;;;;;;4859836;29;20046;-50
2023/07/28 07:03:08;;;;;;;2.20;0.40;;;19.20;99.90;;;;;;4845041;29;20132;-54
2023/07/28 07:05:35;;;;;;;1.45;0.50;;;19.30;99.90;;;;;;4861209;29;20033;-50
2023/07/28 07:08:02;;;;;;;1.00;0.40;;;19.40;99.90;;;;;;4861417;29;20100;-52
2023/07/28 07:10:30;;;;;;;1.27;0.45;;;19.50;99.90;;;;;;4859962;29;20148;-51
2023/07/28 07:12:57;;;;;;;2.47;0.30;;;19.50;99.90;;;;;;4859795;29;20045;-51
2023/07/28 07:15:24;;;;;;;0.98;0.40;;;19.50;99.90;;;;;;4858626;29;20547;-53
2023/07/28 07:17:50;;;;;;;2.50;1.52;;;19.50;99.90;;;;;;4859985;29;20057;-50
2023/07/28 07:20:17;;;;;;;0.93;0.30;;;19.50;99.90;;;;;;4860017;29;20082;-49
2023/07/28 07:22:44;;;;;;;1.83;0.47;;;19.50;99.90;;;;;;4859501;29;20046;-48
2023/07/28 07:25:11;;;;;;;1.15;0.40;;;19.50;99.90;;;;;;4860241;29;20421;-49
2023/07/28 07:27:37;;;;;;;1.52;0.50;;;19.50;99.90;;;;;;4860877;29;20049;-49
2023/07/28 07:30:04;;;;;;;1.10;0.50;;;19.50;99.90;;;;;;4859435;29;20061;-46
2023/07/28 07:32:31;;;;;;;1.70;0.50;;;19.60;99.90;;;;;;4861000;29;20053;-54
2023/07/28 07:34:58;;;;;;;2.25;0.47;;;19.60;99.90;;;;;;4861071;29;20101;-50
2023/07/28 07:37:27;;;;;;;0.80;0.30;;;19.60;99.90;;;;;;4861020;29;20378;-55
2023/07/28 07:39:54;;;;;;;0.57;0.30;;;19.70;99.90;;;;;;4844166;29;20046;-46
2023/07/28 07:42:21;;;;;;;1.95;0.50;;;19.70;99.90;;;;;;4860980;29;20038;-48
2023/07/28 07:44:48;;;;;;;1.50;0.50;;;19.70;99.90;;;;;;4860889;29;20053;-48
2023/07/28 07:47:15;;;;;;;1.25;0.50;;;19.80;99.90;;;;;;4859571;29;20049;-51
2023/07/28 07:49:41;;;;;;;2.05;0.47;;;19.70;99.90;;;;;;4859206;29;20054;-48
2023/07/28 07:52:11;;;;;;;1.35;0.55;;;19.70;99.90;;;;;;4861191;29;20061;-51
2023/07/28 07:54:38;;;;;;;1.42;0.50;;;19.60;99.90;;;;;;4860837;29;20046;-49
2023/07/28 07:57:05;;;;;;;1.23;0.40;;;19.60;99.90;;;;;;4860747;29;20081;-54
2023/07/28 07:59:32;;;;;;;1.10;0.43;;;19.50;99.90;;;;;;4859472;29;20050;-49
2023/07/28 08:02:02;;;;;;;2.65;0.50;;;19.60;99.90;;;;;;4861047;29;20049;-54
2023/07/28 08:04:31;;;;;;;1.38;0.57;;;19.60;99.90;;;;;;4860806;29;20046;-52
2023/07/28 08:06:58;;;;;;;3.25;0.50;;;19.60;99.90;;;;;;4860745;29;20101;-51
2023/07/28 08:09:25;;;;;;;2.35;0.60;;;19.60;99.90;;;;;;4860782;29;20050;-49
2023/07/28 08:11:52;;;;;;;3.28;0.50;;;19.70;99.90;;;;;;4861094;29;20434;-49
2023/07/28 08:14:19;;;;;;;2.78;0.50;;;19.90;99.90;;;;;;4864359;29;20443;-49
2023/07/28 08:16:46;;;;;;;1.05;0.45;;;20.10;99.90;;;;;;4864410;29;20053;-54
2023/07/28 08:19:13;;;;;;;3.13;0.50;;;20.30;99.90;;;;;;4864417;29;20434;-49
2023/07/28 08:21:40;;;;;;;1.48;0.45;;;20.30;99.90;;;;;;4863643;29;20057;-53
2023/07/28 08:24:07;;;;;;;0.98;0.45;;;20.50;99.90;;;;;;4864502;29;20048;-56
2023/07/28 08:26:33;;;;;;;0.88;0.50;;;20.50;99.90;;;;;;4864245;29;20052;-53
2023/07/28 08:29:00;;;;;;;1.95;0.60;;;20.50;99.90;;;;;;4864156;29;20057;-51
2023/07/28 08:31:27;;;;;;;1.13;0.50;;;20.40;99.90;;;;;;4864194;29;20050;-53
2023/07/28 08:33:54;;;;;;;2.45;0.50;;;20.40;99.90;;;;;;4864387;29;20045;-54
2023/07/28 08:36:21;;;;;;;1.60;0.40;;;20.40;99.90;;;;;;4864211;29;20052;-53
2023/07/28 08:38:48;;;;;;;0.90;0.32;;;20.40;99.90;;;;;;4864071;29;20181;-55
2023/07/28 08:41:16;;;;;;;3.38;0.57;;;20.50;99.90;;;;;;4862770;29;20050;-52
2023/07/28 08:43:43;;;;;;;0.98;0.30;;;20.70;99.90;;;;;;4862763;29;20049;-53
2023/07/28 08:46:10;;;;;;;0.73;0.30;;;20.90;99.90;;;;;;4863986;29;20128;-53
2023/07/28 08:48:37;;;;;;;0.93;0.40;;;21.00;99.90;;;;;;4863930;29;20409;-53
2023/07/28 08:51:08;;;;;;;2.25;0.40;;;21.10;99.90;;;;;;4862554;29;20509;-51
2023/07/28 08:53:35;;;;;;;0.57;0.28;;;21.10;99.90;;;;;;4863752;29;20049;-52
2023/07/28 08:56:01;;;;;;;1.40;0.40;;;21.10;99.90;;;;;;4863970;29;20061;-56
2023/07/28 08:58:32;;;;;;;2.72;0.30;;;21.00;99.90;;;;;;4863764;29;20492;-53
2023/07/28 09:01:01;;;;;;;1.00;0.40;;;21.00;99.90;;;;;;4863662;29;20489;-55
2023/07/28 09:03:28;;;;;;;0.90;0.30;;;21.00;99.90;;;;;;4863647;29;20413;-52
2023/07/28 09:05:54;;;;;;;1.15;0.40;;;21.00;99.90;;;;;;4863476;29;20056;-53
2023/07/28 09:08:21;;;;;;;1.02;0.30;;;21.10;99.90;;;;;;4863402;29;20041;-49
2023/07/28 09:10:48;;;;;;;2.05;0.32;;;21.10;99.90;;;;;;4863535;29;20041;-51
2023/07/28 09:13:15;;;;;;;1.60;0.50;;;21.10;99.90;;;;;;4863400;29;20045;-51
2023/07/28 09:15:43;;;;;;;3.35;0.50;;;21.10;99.90;;;;;;4863581;29;20041;-53
2023/07/28 09:18:10;;;;;;;1.00;0.60;;;21.10;99.90;;;;;;4863363;29;20041;-53
2023/07/28 09:20:37;;;;;;;1.50;0.63;;;21.20;99.90;;;;;;4863461;29;20058;-54
2023/07/28 09:23:05;;;;;;;1.85;0.30;;;21.30;99.90;;;;;;4862944;29;20485;-52
2023/07/28 09:25:32;;;;;;;1.33;0.63;;;21.20;99.90;;;;;;4861759;29;20052;-53
2023/07/28 09:27:58;;;;;;;1.30;0.40;;;21.20;99.90;;;;;;4863209;29;20046;-56
2023/07/28 09:30:26;;;;;;;0.93;0.38;;;21.10;99.90;;;;;;4863338;29;20049;-55
2023/07/28 09:32:52;;;;;;;2.03;0.38;;;21.10;99.90;;;;;;4847063;29;20093;-56
2023/07/28 09:35:19;;;;;;;1.35;0.50;;;21.10;99.90;;;;;;4863077;29;20490;-54
2023/07/28 09:37:47;;;;;;;2.00;0.93;;;21.10;99.90;;;;;;4861898;29;20058;-55
2023/07/28 09:40:14;;;;;;;2.33;0.50;;;21.20;99.90;;;;;;4863059;29;20397;-54
2023/07/28 09:42:41;;;;;;;4.30;0.63;;;21.30;99.90;;;;;;4863402;29;20489;-56
2023/07/28 09:45:08;;;;;;;2.63;0.80;;;21.30;99.90;;;;;;4846602;29;20037;-55
2023/07/28 09:47:52;;;;;;;1.58;0.60;;;21.40;99.90;;;;;;4863078;29;20045;-55
2023/07/28 09:50:18;;;;;;;1.25;0.40;;;21.40;99.90;;;;;;4863057;29;20067;-53
2023/07/28 09:52:45;;;;;;;0.85;0.50;;;21.40;99.90;;;;;;4863588;29;20390;-50
2023/07/28 09:55:13;;;;;;;1.67;0.50;;;21.50;99.90;;;;;;4862746;29;20049;-58
2023/07/28 09:57:40;;;;;;;1.25;0.52;;;21.60;99.90;;;;;;4862991;29;20049;-53
2023/07/28 10:00:08;;;;;;;3.38;0.50;;;21.80;99.90;;;;;;4862630;29;20097;-53
2023/07/28 10:02:37;;;;;;;2.03;0.60;;;22.00;99.90;;;;;;4862879;29;20455;-56
2023/07/28 10:05:04;;;;;;;0.90;0.43;;;22.30;99.90;;;;;;4862616;29;20044;-52
2023/07/28 10:07:31;;;;;;;2.63;0.60;;;22.50;99.90;;;;;;4861326;29;20086;-54
2023/07/28 10:09:58;;;;;;;3.20;0.50;;;22.60;99.90;;;;;;4862466;29;20046;-57
2023/07/28 10:12:27;;;;;;;2.25;0.40;;;22.70;99.90;;;;;;4862461;29;20045;-55
2023/07/28 10:14:54;;;;;;;1.30;0.57;;;22.80;99.90;;;;;;4862351;29;20451;-57
2023/07/28 10:17:21;;;;;;;1.15;0.40;;;22.80;99.90;;;;;;4862354;29;20049;-54
2023/07/28 10:19:48;;;;;;;0.88;0.35;;;22.70;99.90;;;;;;4862413;29;20120;-58
2023/07/28 10:22:15;;;;;;;1.13;0.38;;;22.50;99.90;;;;;;4861253;29;20049;-56
2023/07/28 10:24:41;;;;;;;1.10;0.40;;;22.30;99.90;;;;;;4862470;29;20041;-58
2023/07/28 10:27:08;;;;;;;2.30;0.55;;;22.20;99.90;;;;;;4861926;29;20509;-57
2023/07/28 10:29:35;;;;;;;1.33;0.40;;;22.20;99.90;;;;;;4861997;29;20069;-51
2023/07/28 10:32:02;;;;;;;1.95;0.65;;;22.30;99.90;;;;;;4862190;29;20049;-54
2023/07/28 10:34:29;;;;;;;1.55;0.57;;;22.50;99.90;;;;;;4862132;29;20076;-53
2023/07/28 10:36:57;;;;;;;1.17;0.50;;;22.70;99.90;;;;;;4861229;29;20053;-54
2023/07/28 10:39:23;;;;;;;1.63;0.60;;;22.80;99.90;;;;;;4862020;29;20052;-53
2023/07/28 10:41:50;;;;;;;0.88;0.38;;;22.90;99.90;;;;;;4861848;29;20042;-55
2023/07/28 10:44:17;;;;;;;1.02;0.50;;;22.90;99.90;;;;;;4861976;29;20045;-53
2023/07/28 10:46:44;;;;;;;1.20;0.60;;;23.00;99.90;;;;;;4861876;29;20042;-54
2023/07/28 10:49:10;;;;;;;0.73;0.40;;;23.00;99.90;;;;;;4860690;29;20056;-56
2023/07/28 10:51:37;;;;;;;5.00;0.45;;;23.00;99.90;;;;;;4862097;29;20054;-54
2023/07/28 10:54:04;;;;;;;1.48;0.57;;;22.90;99.90;;;;;;4861657;29;20041;-52
2023/07/28 10:56:31;;;;;;;2.28;0.38;;;23.00;99.90;;;;;;4861722;29;20102;-55
2023/07/28 10:58:58;;;;;;;0.95;0.45;;;22.90;99.90;;;;;;4860537;29;20038;-56
2023/07/28 11:01:24;;;;;;;1.30;0.30;;;22.70;99.90;;;;;;4861782;29;20089;-57
2023/07/28 11:03:51;;;;;;;2.28;0.50;;;22.60;99.90;;;;;;4855905;29;20043;-53
2023/07/28 11:06:18;;;;;;;2.40;0.40;;;22.40;99.90;;;;;;4861842;29;20038;-57
2023/07/28 11:08:45;;;;;;;0.50;0.30;;;22.40;99.90;;;;;;4855397;29;20049;-53
2023/07/28 11:11:11;;;;;;;2.30;0.40;;;22.40;99.90;;;;;;4861790;29;20045;-49
2023/07/28 11:13:38;;;;;;;1.33;0.32;;;22.30;99.90;;;;;;4861598;29;20048;-55
2023/07/28 11:16:07;;;;;;;1.15;0.50;;;22.40;99.90;;;;;;4861575;29;20422;-51
2023/07/28 11:18:34;;;;;;;1.17;0.47;;;22.40;99.90;;;;;;4855091;29;20041;-51
2023/07/28 11:21:02;;;;;;;1.60;0.40;;;22.50;99.90;;;;;;4860216;29;20401;-53
2023/07/28 11:23:29;;;;;;;1.58;0.40;;;22.60;99.90;;;;;;4855224;29;20049;-55
2023/07/28 11:25:56;;;;;;;1.02;0.40;;;22.70;99.90;;;;;;4861050;29;20044;-54
2023/07/28 11:28:23;;;;;;;1.25;0.40;;;22.80;99.90;;;;;;4861116;29;20053;-56
2023/07/28 11:30:50;;;;;;;1.95;0.40;;;22.80;99.90;;;;;;4860019;29;20061;-57
2023/07/28 11:33:17;;;;;;;1.02;0.40;;;22.80;99.90;;;;;;4861185;29;20143;-52
2023/07/28 11:35:43;;;;;;;2.08;0.30;;;22.80;99.90;;;;;;4861071;29;20053;-55
2023/07/28 11:38:10;;;;;;;1.42;0.50;;;22.90;99.90;;;;;;4861204;29;20045;-55
2023/07/28 11:40:37;;;;;;;0.80;0.40;;;22.90;99.90;;;;;;4861519;29;20391;-53
2023/07/28 11:43:04;;;;;;;6.70;0.60;;;23.00;99.90;;;;;;4861011;29;20156;-55
2023/07/28 11:45:31;;;;;;;1.63;0.40;;;23.00;99.80;;;;;;4860026;29;20045;-54
2023/07/28 11:47:58;;;;;;;1.02;0.40;;;22.80;99.90;;;;;;4860548;29;20057;-56
2023/07/28 11:50:25;;;;;;;2.25;0.43;;;22.70;99.80;;;;;;4860786;29;20557;-55
2023/07/28 11:52:51;;;;;;;0.85;0.30;;;22.70;99.90;;;;;;4860725;29;20050;-50
2023/07/28 11:55:18;;;;;;;1.10;0.30;;;22.60;99.90;;;;;;4860994;29;20489;-56
2023/07/28 11:57:45;;;;;;;1.00;0.30;;;22.60;99.90;;;;;;4861090;29;20077;-56
2023/07/28 12:00:16;;;;;;;2.40;0.40;;;22.60;99.90;;;;;;4860988;29;20049;-55
2023/07/28 12:02:43;;;;;;;0.82;0.30;;;22.70;99.90;;;;;;4860862;29;20048;-56
2023/07/28 12:05:10;;;;;;;2.75;0.32;;;22.80;99.90;;;;;;4860714;29;20045;-53
2023/07/28 12:07:37;;;;;;;0.93;0.40;;;22.90;99.90;;;;;;4860751;29;20079;-56
2023/07/28 12:10:06;;;;;;;1.02;0.38;;;22.90;99.90;;;;;;4860647;29;20501;-51
2023/07/28 12:12:33;;;;;;;5.13;0.50;;;23.10;99.90;;;;;;4859727;29;20058;-53
2023/07/28 12:15:04;;;;;;;0.75;0.30;;;23.40;99.90;;;;;;4861150;29;20053;-53
2023/07/28 12:17:34;;;;;;;1.35;0.40;;;23.60;99.60;;;;;;4855062;29;20044;-54
2023/07/28 12:20:10;;;;;;;4.22;0.40;;;23.90;99.40;;;;;;4860456;29;20136;-53
2023/07/28 12:22:38;;;;;;;1.30;0.43;;;23.90;99.50;;;;;;4860443;29;20125;-53
2023/07/28 12:25:05;;;;;;;1.35;0.50;;;24.00;98.80;;;;;;4844215;29;20316;-54
2023/07/28 12:27:31;;;;;;;1.33;0.30;;;24.10;99.00;;;;;;4861019;29;20053;-50
2023/07/28 12:29:59;;;;;;;2.33;0.47;;;24.00;98.60;;;;;;4860648;29;20045;-53
2023/07/28 12:32:29;;;;;;;0.95;0.30;;;23.90;99.20;;;;;;4860756;29;20140;-52
2023/07/28 12:34:59;;;;;;;0.95;0.30;;;24.00;99.20;;;;;;4860534;29;20101;-53
2023/07/28 12:37:26;;;;;;;1.45;0.63;;;24.10;99.10;;;;;;4860775;29;20469;-54
2023/07/28 12:39:55;;;;;;;1.15;0.45;;;24.30;99.10;;;;;;4860639;29;20042;-58
2023/07/28 12:42:30;;;;;;;2.60;0.50;;;24.50;98.80;;;;;;4860735;29;20061;-55
2023/07/28 12:45:00;;;;;;;1.33;0.50;;;24.60;98.50;;;;;;4859570;29;20041;-54
2023/07/28 12:47:30;;;;;;;1.70;0.40;;;24.80;98.30;;;;;;4860658;29;20053;-54